| Date | Time | Temp. (oF) | Dew Point (oF) | Rel. Hum. (%) | Press. (in.) | Wind Dir. | Wind Speed (mph) | Hourly Rainfall (in.) |
|
|---|---|---|---|---|---|---|---|---|---|
| 1 | 01/21 | 00:00 | 20 | 8 | 60 | 30.03 | N | 9 | 0.00 |
| 2 | 01/20 | 23:00 | 21 | 10 | 63 | 30.02 | NNE | 4 | 0.00 |
| 3 | 01/20 | 22:00 | 23 | 12 | 64 | 30.01 | NNW | 4 | 0.00 |
| 4 | 01/20 | 21:00 | 23 | 14 | 71 | 30.00 | NNE | 5 | 0.00 |
| 5 | 01/20 | 20:00 | 23 | 14 | 71 | 30.00 | NNW | 2 | 0.00 |
| 6 | 01/20 | 19:00 | 23 | 14 | 69 | 29.99 | NNW | 2 | 0.00 |
| 7 | 01/20 | 18:00 | 25 | 15 | 67 | 29.99 | WNW | 4 | 0.00 |
| 8 | 01/20 | 17:00 | 27 | 16 | 63 | 29.97 | WNW | 3 | 0.00 |
| 9 | 01/20 | 16:00 | 29 | 17 | 61 | 29.96 | NW | 5 | 0.00 |
| 10 | 01/20 | 15:00 | 29 | 17 | 61 | 29.95 | WNW | 9 | 0.00 |
| 11 | 01/20 | 14:00 | 30 | 17 | 60 | 29.95 | WNW | 6 | 0.00 |
| 12 | 01/20 | 13:00 | 30 | 18 | 62 | 29.97 | SW | 6 | 0.00 |
| 13 | 01/20 | 12:00 | 29 | 17 | 61 | 30.00 | W | 5 | 0.00 |
| 14 | 01/20 | 11:00 | 28 | 17 | 63 | 30.02 | WSW | 12 | 0.00 |
| 15 | 01/20 | 10:00 | 28 | 18 | 67 | 30.03 | WNW | 13 | 0.00 |
| 16 | 01/20 | 09:00 | 27 | 18 | 71 | 30.02 | WNW | 6 | 0.00 |
| 17 | 01/20 | 208:56 | 18 | 9 | 70 | 27.00 | 08:57 | 1 | 6.98 |
| 18 | 01/20 | 08:55 | 27 | 19 | 72 | 30.02 | WNW | 4 | 0.00 |
| 19 | miss | miss | miss | miss | miss | miss | miss | miss | |
| 20 | 01/20 | 08:53 | 27 | 19 | 72 | 30.02 | WNW | 7 | 0.00 |
| 21 | miss | miss | miss | miss | miss | miss | miss | miss | |
| 22 | 01/20 | 08:51 | 27 | 19 | 72 | 30.02 | WNW | 5 | 0.00 |
| 23 | miss | miss | miss | miss | miss | miss | miss | miss | |
| 24 | 01/20 | 08:49 | 27 | 19 | 72 | 30.02 | W | 4 | 0.00 |
| 25 | miss | miss | miss | miss | miss | miss | miss | miss | |
| 26 | 01/20 | 08:48 | 27 | 19 | 73 | 30.02 | WNW | 6 | 0.00 |
| 27 | miss | miss | miss | miss | miss | miss | miss | miss | |
| 28 | 01/20 | 08:48 | 27 | 19 | 73 | 30.02 | WNW | 6 | 0.00 |
| 29 | miss | miss | miss | miss | miss | miss | miss | miss | |
| 30 | 01/20 | 08:48 | 27 | 19 | 73 | 30.02 | WNW | 6 | 0.00 |
| 31 | miss | miss | miss | miss | miss | miss | miss | miss | |
| 32 | 01/20 | 08:48 | 27 | 19 | 73 | 30.02 | WNW | 6 | 0.00 |
| 33 | miss | miss | miss | miss | miss | miss | miss | miss | |
| 34 | 01/20 | 08:48 | 27 | 19 | 73 | 30.02 | WNW | 6 | 0.00 |
| 35 | miss | miss | miss | miss | miss | miss | miss | miss | |
| 36 | 01/20 | 08:48 | 27 | 19 | 73 | 30.02 | WNW | 6 | 0.00 |
| 37 | miss | miss | miss | miss | miss | miss | miss | miss | |
| 38 | 01/20 | 08:48 | 27 | 19 | 73 | 30.02 | WNW | 6 | 0.00 |
| 39 | miss | miss | miss | miss | miss | miss | miss | miss | |
| 40 | 01/20 | 08:48 | 27 | 19 | 73 | 30.02 | WNW | 6 | 0.00 |
| 41 | 01/20 | 08:00 | 26 | 20 | 79 | 30.00 | WNW | 6 | 0.01 |
| 42 | 01/20 | 07:00 | 26 | 23 | 89 | 29.98 | WSW | 10 | 0.00 |
| 43 | 01/20 | 06:00 | 25 | 23 | 92 | 29.96 | W | 6 | 0.00 |
| 44 | 01/20 | 05:00 | 24 | 22 | 94 | 29.95 | W | 1 | 0.00 |
| 45 | 01/20 | 04:00 | 23 | 21 | 95 | 29.94 | SW | 4 | 0.00 |
| 46 | 01/20 | 03:00 | 22 | 20 | 95 | 29.95 | SW | 2 | 0.00 |
| 47 | 01/20 | 02:00 | 22 | 21 | 97 | 29.95 | SSW | 6 | 0.01 |
| 48 | 01/20 | 01:00 | 20 | 19 | 97 | 29.96 | SW | 4 | 0.00 |
| 49 | 01/20 | 00:00 | 20 | 19 | 96 | 29.96 | NW | 2 | -0.02 |
| 50 | 01/19 | 23:00 | 20 | 19 | 97 | 29.96 | SSW | 3 | 0.01 |
| 51 | 01/19 | 22:00 | 19 | 18 | 97 | 29.96 | SSE | 2 | 0.01 |
| 52 | 01/19 | 21:00 | 19 | 18 | 97 | 29.98 | SSW | 3 | 0.00 |
| 53 | 01/19 | 20:00 | 18 | 17 | 98 | 30.00 | SSW | 2 | 0.01 |
| 54 | 01/19 | 19:00 | 18 | 17 | 97 | 30.01 | S | 2 | 0.00 |
| 55 | 01/19 | 18:00 | 18 | 16 | 95 | 30.02 | S | 7 | 0.00 |
| 56 | 01/19 | 17:00 | 18 | 15 | 91 | 30.02 | SSW | 5 | 0.00 |
| 57 | 01/19 | 16:00 | 18 | 16 | 92 | 30.04 | SSW | 7 | 0.00 |
| 58 | 01/19 | 15:00 | 18 | 16 | 95 | 30.06 | SSW | 10 | 0.00 |
| 59 | 01/19 | 14:00 | 18 | 17 | 99 | 30.10 | S | 10 | 0.00 |
| 60 | 01/19 | 13:00 | 17 | 16 | 98 | 30.14 | S | 9 | 0.00 |
| 61 | 01/19 | 12:00 | 16 | 14 | 95 | 30.20 | SSE | 8 | 0.00 |
| 62 | 01/19 | 11:00 | 16 | 10 | 79 | 30.25 | SSW | 10 | 0.00 |
| 63 | 01/19 | 10:00 | 16 | 6 | 65 | 30.28 | S | 15 | 0.00 |
| 64 | miss | miss | miss | miss | miss | miss | miss | miss | |
| 65 | 01/19 | 09:47 | 15 | 5 | 64 | 30.29 | SSE | 16 | 0.00 |
| 66 | miss | miss | miss | miss | miss | miss | miss | miss | |
| 67 | 01/19 | 09:45 | 15 | 5 | 65 | 30.29 | S | 16 | 0.00 |
| 68 | miss | miss | miss | miss | miss | miss | miss | miss | |
| 69 | 01/19 | 09:43 | 15 | 5 | 65 | 30.29 | SSW | 12 | 0.00 |
| 70 | miss | miss | miss | miss | miss | miss | miss | miss | |
| 71 | 01/19 | 09:41 | 15 | 5 | 65 | 30.30 | S | 10 | 0.00 |
| 72 | miss | miss | miss | miss | miss | miss | miss | miss | |
| 73 | 01/19 | 09:39 | 15 | 5 | 65 | 30.30 | SSE | 9 | 0.00 |
| 74 | miss | miss | miss | miss | miss | miss | miss | miss | |
| 75 | 01/19 | 09:39 | 15 | 5 | 65 | 30.30 | SSE | 9 | 0.00 |
| 76 | miss | miss | miss | miss | miss | miss | miss | miss | |
| 77 | 01/19 | 09:39 | 15 | 5 | 65 | 30.30 | SSE | 9 | 0.00 |
| 78 | miss | miss | miss | miss | miss | miss | miss | miss | |
| 79 | 01/19 | 09:39 | 15 | 5 | 65 | 30.30 | SSE | 9 | 0.00 |
| 80 | miss | miss | miss | miss | miss | miss | miss | miss | |
| 81 | 01/19 | 09:39 | 15 | 5 | 65 | 30.30 | SSE | 9 | 0.00 |
| 82 | miss | miss | miss | miss | miss | miss | miss | miss | |
| 83 | 01/19 | 09:39 | 15 | 5 | 65 | 30.30 | SSE | 9 | 0.00 |
| 84 | miss | miss | miss | miss | miss | miss | miss | miss | |
| 85 | 01/19 | 09:39 | 15 | 5 | 65 | 30.30 | SSE | 9 | 0.00 |
| 86 | miss | miss | miss | miss | miss | miss | miss | miss | |
| 87 | 01/19 | 09:39 | 15 | 5 | 65 | 30.30 | SSE | 9 | 0.00 |
| 88 | 01/19 | 09:00 | 14 | 5 | 69 | 30.32 | SE | 4 | 0.00 |
| 89 | 01/19 | 08:00 | 12 | 3 | 69 | 30.36 | S | 4 | 0.00 |
| 90 | 01/19 | 07:00 | 12 | 2 | 66 | 30.39 | S | 7 | 0.00 |
| 91 | 01/19 | 06:00 | 11 | 1 | 65 | 30.42 | S | 5 | 0.00 |
| 92 | 01/19 | 05:00 | 11 | 2 | 68 | 30.44 | SSE | 4 | 0.00 |
| 93 | 01/19 | 04:00 | 10 | 0 | 66 | 30.48 | SSE | 2 | 0.00 |
| 94 | 01/19 | 03:00 | 10 | 1 | 67 | 30.52 | ESE | 1 | 0.00 |
| 95 | 01/19 | 02:00 | 9 | 1 | 70 | 30.54 | E | 1 | 0.00 |
| 96 | 01/19 | 01:00 | 8 | -1 | 66 | 30.58 | S | 4 | 0.00 |
| 97 | 01/19 | 00:00 | 8 | 0 | 67 | 30.57 | SSE | 3 | -0.03 |